createdAt,value
2022-11-04T00:00:04.627Z,97351.00
2022-11-04T00:02:52.084Z,97345.00
2022-11-04T00:05:39.587Z,97341.00
2022-11-04T00:08:27.094Z,97333.00
2022-11-04T00:11:33.281Z,97341.00
2022-11-04T00:14:21.341Z,97338.00
2022-11-04T00:17:24.797Z,97349.00
2022-11-04T00:20:31.111Z,97353.00
2022-11-04T00:23:37.528Z,97361.00
2022-11-04T00:26:43.859Z,97362.00
2022-11-04T00:29:31.352Z,97369.00
2022-11-04T00:32:37.547Z,97369.00
2022-11-04T00:35:25.007Z,97360.00
2022-11-04T00:38:12.418Z,97358.00
2022-11-04T00:40:59.863Z,97352.00
2022-11-04T00:43:47.257Z,97358.00
2022-11-04T00:46:35.321Z,97361.00
2022-11-04T00:49:22.835Z,97367.00
2022-11-04T00:52:10.346Z,97372.00
2022-11-04T00:54:57.836Z,97374.00
2022-11-04T00:57:45.292Z,97368.00
2022-11-04T01:00:32.772Z,97365.00
2022-11-04T01:03:20.207Z,97356.00
2022-11-04T01:06:07.796Z,97354.00
2022-11-04T01:09:06.243Z,97363.00
2022-11-04T01:11:53.807Z,97361.00
2022-11-04T01:14:41.352Z,97360.00
2022-11-04T01:17:28.942Z,97365.00
2022-11-04T01:20:17.543Z,97367.00
2022-11-04T01:23:05.025Z,97359.00
2022-11-04T01:25:52.512Z,97351.00
2022-11-04T01:28:40.188Z,97357.00
2022-11-04T01:31:31.343Z,97362.00
2022-11-04T01:34:18.935Z,97355.00
2022-11-04T01:37:06.529Z,97383.00
2022-11-04T01:39:53.962Z,97408.00
2022-11-04T01:42:41.502Z,97396.00
2022-11-04T01:45:29.022Z,97408.00
2022-11-04T01:48:24.752Z,97397.00
2022-11-04T01:51:13.853Z,97393.00
2022-11-04T01:54:04.412Z,97402.00
2022-11-04T01:56:52.851Z,97405.00
2022-11-04T01:59:42.073Z,97397.00
2022-11-04T02:02:30.027Z,97405.00
2022-11-04T02:05:18.906Z,97448.00
2022-11-04T02:08:09.621Z,97476.00
2022-11-04T02:11:03.946Z,97495.00
2022-11-04T02:13:51.567Z,97492.00
2022-11-04T02:16:48.473Z,97533.00
2022-11-04T02:20:06.702Z,97512.00
2022-11-04T02:23:27.972Z,97499.00
2022-11-04T02:26:55.777Z,97499.00
2022-11-04T02:29:59.346Z,97494.00
2022-11-04T02:33:26.257Z,97511.00
2022-11-04T02:37:13.186Z,97513.00
2022-11-04T02:40:28.391Z,97517.00
2022-11-04T02:43:53.437Z,97530.00
2022-11-04T02:47:00.392Z,97534.00
2022-11-04T02:50:11.849Z,97539.00
2022-11-04T02:53:04.052Z,97539.00
2022-11-04T02:55:57.179Z,97548.00
2022-11-04T02:58:54.991Z,97550.00
2022-11-04T03:01:46.941Z,97552.00
2022-11-04T03:04:41.876Z,97560.00
2022-11-04T03:07:36.637Z,97565.00
2022-11-04T03:10:36.850Z,97579.00
2022-11-04T03:13:37.618Z,97571.00
2022-11-04T03:16:38.973Z,97585.00
2022-11-04T03:19:40.942Z,97593.00
2022-11-04T03:22:34.269Z,97589.00
2022-11-04T03:25:28.929Z,97588.00
2022-11-04T03:28:30.852Z,97599.00
2022-11-04T03:31:30.359Z,97603.00
2022-11-04T03:34:18.034Z,97597.00
2022-11-04T03:37:06.151Z,97604.00
2022-11-04T03:39:53.922Z,97608.00
2022-11-04T03:42:49.837Z,97609.00
2022-11-04T03:45:39.310Z,97612.00
2022-11-04T03:48:27.061Z,97616.00
2022-11-04T03:51:14.768Z,97619.00
2022-11-04T03:54:02.390Z,97614.00
2022-11-04T03:57:40.467Z,97624.00
2022-11-04T04:00:44.911Z,97610.00
2022-11-04T04:03:42.907Z,97614.00
2022-11-04T04:06:36.647Z,97617.00
2022-11-04T04:10:39.191Z,97619.00
2022-11-04T04:13:32.546Z,97611.00
2022-11-04T04:16:31.833Z,97619.00
2022-11-04T04:19:24.656Z,97622.00
2022-11-04T04:22:44.725Z,97627.00
2022-11-04T04:25:52.031Z,97620.00
2022-11-04T04:28:40.706Z,97614.00
2022-11-04T04:31:49.646Z,97619.00
2022-11-04T04:34:37.866Z,97614.00
2022-11-04T04:37:28.137Z,97607.00
2022-11-04T04:40:43.110Z,97605.00
2022-11-04T04:43:49.512Z,97606.00
2022-11-04T04:46:39.936Z,97607.00
2022-11-04T04:49:35.264Z,97611.00
2022-11-04T04:52:25.796Z,97602.00
2022-11-04T04:55:15.648Z,97603.00
2022-11-04T04:58:03.167Z,97606.00
2022-11-04T05:00:50.657Z,97599.00
2022-11-04T05:03:43.928Z,97604.00
2022-11-04T05:06:32.633Z,97609.00
2022-11-04T05:09:20.091Z,97606.00
2022-11-04T05:12:07.702Z,97607.00
2022-11-04T05:14:55.097Z,97615.00
2022-11-04T05:17:42.727Z,97610.00
2022-11-04T05:20:30.622Z,97611.00
2022-11-04T05:23:18.272Z,97610.00
2022-11-04T05:26:06.088Z,97615.00
2022-11-04T05:28:53.616Z,97619.00
2022-11-04T05:31:41.257Z,97624.00
2022-11-04T05:34:28.809Z,97628.00
2022-11-04T05:37:16.339Z,97617.00
2022-11-04T05:40:04.449Z,97625.00
2022-11-04T05:42:51.966Z,97624.00
2022-11-04T05:45:39.716Z,97618.00
2022-11-04T05:48:28.479Z,97623.00
2022-11-04T05:51:21.456Z,97628.00
2022-11-04T05:54:09.440Z,97627.00
2022-11-04T05:56:56.852Z,97628.00
2022-11-04T05:59:44.386Z,97634.00
2022-11-04T06:02:32.024Z,97638.00
2022-11-04T06:05:19.724Z,97640.00
2022-11-04T06:08:07.439Z,97639.00
2022-11-04T06:10:55.142Z,97630.00
2022-11-04T06:13:42.761Z,97635.00
2022-11-04T06:16:30.278Z,97646.00
2022-11-04T06:19:17.743Z,97635.00
2022-11-04T06:22:06.011Z,97638.00
2022-11-04T06:24:53.446Z,97650.00
2022-11-04T06:27:41.388Z,97654.00
2022-11-04T06:30:28.859Z,97652.00
2022-11-04T06:33:16.296Z,97655.00
2022-11-04T06:36:07.836Z,97657.00
2022-11-04T06:38:59.946Z,97654.00
2022-11-04T06:41:51.871Z,97644.00
2022-11-04T06:44:40.596Z,97647.00
2022-11-04T06:47:27.991Z,97654.00
2022-11-04T06:50:15.457Z,97656.00
2022-11-04T06:53:02.926Z,97665.00
2022-11-04T06:55:51.947Z,97652.00
2022-11-04T06:58:39.382Z,97660.00
2022-11-04T07:01:31.048Z,97658.00
2022-11-04T07:04:19.676Z,97666.00
2022-11-04T07:07:07.121Z,97660.00
2022-11-04T07:09:54.521Z,97661.00
2022-11-04T07:12:42.028Z,97657.00
2022-11-04T07:15:29.476Z,97658.00
2022-11-04T07:18:16.939Z,97670.00
2022-11-04T07:21:09.731Z,97666.00
2022-11-04T07:23:57.866Z,97669.00
2022-11-04T07:26:45.322Z,97667.00
2022-11-04T07:29:32.817Z,97663.00
2022-11-04T07:32:20.329Z,97661.00
2022-11-04T07:35:08.627Z,97661.00
2022-11-04T07:37:56.242Z,97662.00
2022-11-04T07:40:43.668Z,97664.00
2022-11-04T07:43:31.296Z,97662.00
2022-11-04T07:46:20.769Z,97657.00
2022-11-04T07:49:08.230Z,97658.00
2022-11-04T07:51:55.769Z,97650.00
2022-11-04T07:54:43.247Z,97647.00
2022-11-04T07:57:30.725Z,97651.00
2022-11-04T08:00:18.631Z,97653.00
2022-11-04T08:03:06.152Z,97643.00
2022-11-04T08:06:02.464Z,97641.00
2022-11-04T08:08:50.401Z,97636.00
2022-11-04T08:11:37.877Z,97624.00
2022-11-04T08:14:25.523Z,97633.00
2022-11-04T08:17:14.890Z,97635.00
2022-11-04T08:20:02.567Z,97639.00
2022-11-04T08:22:50.072Z,97626.00
2022-11-04T08:25:37.604Z,97623.00
2022-11-04T08:28:25.755Z,97615.00
2022-11-04T08:31:26.271Z,97615.00
2022-11-04T08:34:14.837Z,97618.00
2022-11-04T08:37:02.273Z,97609.00
2022-11-04T08:39:54.524Z,97605.00
2022-11-04T08:43:10.900Z,97614.00
2022-11-04T08:51:11.966Z,97619.00
2022-11-04T08:54:00.666Z,97626.00
2022-11-04T08:56:48.507Z,97617.00
2022-11-04T08:59:36.972Z,97634.00
2022-11-04T09:02:24.668Z,97640.00
2022-11-04T09:05:12.397Z,97631.00
2022-11-04T09:08:01.453Z,97632.00
2022-11-04T09:10:49.166Z,97634.00
2022-11-04T09:13:39.815Z,97635.00
2022-11-04T09:16:30.031Z,97626.00
2022-11-04T09:19:17.497Z,97632.00
2022-11-04T09:22:05.003Z,97626.00
2022-11-04T09:24:52.453Z,97624.00
2022-11-04T09:27:39.831Z,97623.00
2022-11-04T09:30:27.852Z,97625.00
2022-11-04T09:33:15.388Z,97614.00
2022-11-04T09:36:03.604Z,97613.00
2022-11-04T09:38:51.212Z,97609.00
2022-11-04T09:42:01.341Z,97604.00
2022-11-04T09:48:33.697Z,97602.00
2022-11-04T09:51:52.712Z,97603.00
2022-11-04T09:55:02.268Z,97604.00
2022-11-04T09:57:58.581Z,97591.00
2022-11-04T10:01:06.791Z,97575.00
2022-11-04T10:04:25.058Z,97576.00
2022-11-04T10:07:33.507Z,97575.00
2022-11-04T10:10:46.427Z,97575.00
2022-11-04T10:14:11.904Z,97572.00
2022-11-04T10:17:44.519Z,97562.00
2022-11-04T10:20:47.017Z,97548.00
2022-11-04T10:23:39.067Z,97555.00
2022-11-04T10:26:50.543Z,97556.00
2022-11-04T10:30:16.685Z,97547.00
2022-11-04T10:33:29.187Z,97552.00
2022-11-04T10:36:18.276Z,97545.00
2022-11-04T10:39:23.257Z,97548.00
2022-11-04T10:42:16.579Z,97548.00
2022-11-04T10:45:04.426Z,97548.00
2022-11-04T10:48:54.142Z,97541.00
2022-11-04T10:51:41.607Z,97525.00
2022-11-04T10:54:40.936Z,97504.00
2022-11-04T10:57:28.758Z,97502.00
2022-11-04T11:00:41.400Z,97501.00
2022-11-04T11:03:35.315Z,97502.00
2022-11-04T11:06:35.790Z,97495.00
2022-11-04T11:09:30.747Z,97479.00
2022-11-04T11:12:50.086Z,97473.00
2022-11-04T11:15:41.372Z,97475.00
2022-11-04T11:18:29.651Z,97474.00
2022-11-04T11:21:23.961Z,97472.00
2022-11-04T11:24:20.612Z,97471.00
2022-11-04T11:27:16.922Z,97472.00
2022-11-04T11:30:04.884Z,97473.00
2022-11-04T11:33:20.087Z,97478.00
2022-11-04T11:36:23.286Z,97478.00
2022-11-04T11:39:17.498Z,97495.00
2022-11-04T11:42:11.616Z,97487.00
2022-11-04T11:45:00.244Z,97477.00
2022-11-04T11:47:52.523Z,97478.00
2022-11-04T11:51:00.251Z,97461.00
2022-11-04T11:54:24.948Z,97483.00
2022-11-04T11:57:46.643Z,97504.00
2022-11-04T12:01:09.912Z,97503.00
2022-11-04T12:11:29.007Z,97528.00
2022-11-04T12:14:46.105Z,97524.00
2022-11-04T12:17:57.658Z,97535.00
2022-11-04T12:21:06.886Z,97538.00
2022-11-04T12:24:20.808Z,97525.00
2022-11-04T12:27:52.573Z,97510.00
2022-11-04T12:31:34.652Z,97502.00
2022-11-04T12:35:00.192Z,97498.00
2022-11-04T12:38:20.594Z,97502.00
2022-11-04T12:42:06.411Z,97510.00
2022-11-04T12:45:04.996Z,97515.00
2022-11-04T12:48:05.032Z,97529.00
2022-11-04T12:51:22.253Z,97543.00
2022-11-04T12:54:42.927Z,97549.00
2022-11-04T12:57:48.307Z,97566.00
2022-11-04T13:00:41.307Z,97568.00
2022-11-04T13:03:35.277Z,97587.00
2022-11-04T13:06:57.787Z,97603.00
2022-11-04T13:10:04.167Z,97623.00
2022-11-04T13:12:56.032Z,97628.00
2022-11-04T13:15:58.299Z,97625.00
2022-11-04T13:18:48.035Z,97630.00
2022-11-04T13:21:38.644Z,97627.00
2022-11-04T13:24:32.061Z,97639.00
2022-11-04T13:27:36.597Z,97640.00
2022-11-04T13:30:49.982Z,97640.00
2022-11-04T13:34:00.824Z,97665.00
2022-11-04T13:37:09.476Z,97674.00
2022-11-04T13:40:31.722Z,97670.00
2022-11-04T13:43:39.535Z,97668.00
2022-11-04T13:46:33.548Z,97689.00
2022-11-04T13:49:32.585Z,97674.00
2022-11-04T13:52:20.829Z,97681.00
2022-11-04T13:55:21.704Z,97679.00
2022-11-04T13:58:25.728Z,97689.00
2022-11-04T14:01:29.820Z,97678.00
2022-11-04T14:04:31.852Z,97675.00
2022-11-04T14:07:19.427Z,97683.00
2022-11-04T14:10:48.867Z,97672.00
2022-11-04T14:13:37.925Z,97681.00
2022-11-04T14:16:37.957Z,97674.00
2022-11-04T14:20:14.136Z,97670.00
2022-11-04T14:23:04.033Z,97660.00
2022-11-04T14:26:06.109Z,97662.00
2022-11-04T14:29:19.307Z,97656.00
2022-11-04T14:32:13.076Z,97663.00
2022-11-04T14:35:05.173Z,97665.00
2022-11-04T14:37:56.049Z,97671.00
2022-11-04T14:41:12.194Z,97673.00
2022-11-04T14:44:07.220Z,97669.00
2022-11-04T14:47:01.036Z,97678.00
2022-11-04T14:50:04.812Z,97675.00
2022-11-04T14:52:58.927Z,97672.00
2022-11-04T14:55:46.525Z,97677.00
2022-11-04T14:58:34.033Z,97692.00
2022-11-04T15:01:23.328Z,97702.00
2022-11-04T15:04:27.271Z,97704.00
2022-11-04T15:07:45.171Z,97707.00
2022-11-04T15:10:33.866Z,97708.00
2022-11-04T15:13:21.732Z,97713.00
2022-11-04T15:16:25.881Z,97712.00
2022-11-04T15:19:34.497Z,97712.00
2022-11-04T15:22:23.377Z,97713.00
2022-11-04T15:25:11.993Z,97721.00
2022-11-04T15:28:00.011Z,97720.00
2022-11-04T15:31:28.162Z,97720.00
2022-11-04T15:34:17.046Z,97715.00
2022-11-04T15:37:06.443Z,97732.00
2022-11-04T15:39:58.463Z,97720.00
2022-11-04T15:42:48.098Z,97730.00
2022-11-04T15:45:47.123Z,97725.00
2022-11-04T15:48:37.989Z,97719.00
2022-11-04T15:51:29.431Z,97729.00
2022-11-04T15:54:48.887Z,97733.00
2022-11-04T15:57:40.870Z,97732.00
2022-11-04T16:00:29.161Z,97737.00
2022-11-04T16:03:22.720Z,97732.00
2022-11-04T16:06:11.757Z,97740.00
2022-11-04T16:09:20.430Z,97748.00
2022-11-04T16:12:27.378Z,97748.00
2022-11-04T16:15:42.305Z,97747.00
2022-11-04T16:18:42.123Z,97755.00
2022-11-04T16:21:36.075Z,97752.00
2022-11-04T16:24:29.549Z,97755.00
2022-11-04T16:27:21.904Z,97765.00
2022-11-04T16:30:25.125Z,97760.00
2022-11-04T16:33:18.517Z,97753.00
2022-11-04T16:36:23.506Z,97747.00
2022-11-04T16:39:11.112Z,97758.00
2022-11-04T16:41:59.312Z,97761.00
2022-11-04T16:44:54.536Z,97760.00
2022-11-04T16:47:42.546Z,97771.00
2022-11-04T16:50:34.228Z,97768.00
2022-11-04T16:53:21.741Z,97766.00
2022-11-04T16:56:09.372Z,97761.00
2022-11-04T16:58:56.942Z,97778.00
2022-11-04T17:01:44.481Z,97790.00
2022-11-04T17:04:32.093Z,97782.00
2022-11-04T17:07:19.651Z,97784.00
2022-11-04T17:10:18.777Z,97795.00
2022-11-04T17:13:06.296Z,97792.00
2022-11-04T17:15:54.639Z,97802.00
2022-11-04T17:18:42.441Z,97807.00
2022-11-04T17:21:30.002Z,97821.00
2022-11-04T17:24:17.806Z,97814.00
2022-11-04T17:27:06.532Z,97811.00
2022-11-04T17:29:54.049Z,97806.00
2022-11-04T17:32:43.471Z,97808.00
2022-11-04T17:35:31.032Z,97810.00
2022-11-04T17:38:19.756Z,97813.00
2022-11-04T17:41:26.026Z,97817.00
2022-11-04T17:44:13.554Z,97819.00
2022-11-04T17:47:01.126Z,97830.00
2022-11-04T17:49:49.319Z,97824.00
2022-11-04T17:52:37.961Z,97833.00
2022-11-04T17:55:27.650Z,97844.00
2022-11-04T17:58:16.444Z,97847.00
2022-11-04T18:01:09.106Z,97846.00
2022-11-04T18:03:58.402Z,97845.00
2022-11-04T18:06:46.920Z,97853.00
2022-11-04T18:09:36.501Z,97863.00
2022-11-04T18:12:41.746Z,97857.00
2022-11-04T18:15:30.386Z,97867.00
2022-11-04T18:18:17.932Z,97864.00
2022-11-04T18:21:08.637Z,97868.00
2022-11-04T18:23:56.509Z,97873.00
2022-11-04T18:26:44.361Z,97871.00
2022-11-04T18:29:31.910Z,97872.00
2022-11-04T18:32:19.467Z,97868.00
2022-11-04T18:35:08.627Z,97861.00
2022-11-04T18:37:56.167Z,97858.00
2022-11-04T18:40:43.836Z,97868.00
2022-11-04T18:43:31.327Z,97869.00
2022-11-04T18:46:20.087Z,97863.00
2022-11-04T18:49:07.527Z,97869.00
2022-11-04T18:51:55.397Z,97875.00
2022-11-04T18:54:46.322Z,97870.00
2022-11-04T18:57:34.259Z,97879.00
2022-11-04T19:00:22.628Z,97894.00
2022-11-04T19:03:11.060Z,97898.00
2022-11-04T19:05:58.607Z,97906.00
2022-11-04T19:08:47.157Z,97907.00
2022-11-04T19:11:39.746Z,97905.00
2022-11-04T19:14:27.162Z,97905.00
2022-11-04T19:17:15.050Z,97904.00
2022-11-04T19:20:08.357Z,97897.00
2022-11-04T19:22:59.057Z,97890.00
2022-11-04T19:25:46.607Z,97895.00
2022-11-04T19:28:46.895Z,97903.00
2022-11-04T19:31:38.606Z,97899.00
2022-11-04T19:34:26.254Z,97912.00
2022-11-04T19:37:13.962Z,97914.00
2022-11-04T19:40:01.446Z,97915.00
2022-11-04T19:43:07.613Z,97924.00
2022-11-04T19:45:57.723Z,97935.00
2022-11-04T19:48:47.522Z,97940.00
2022-11-04T19:51:37.750Z,97953.00
2022-11-04T19:54:25.302Z,97957.00
2022-11-04T19:57:12.904Z,97962.00
2022-11-04T20:00:00.407Z,97955.00
2022-11-04T20:02:47.914Z,97960.00
2022-11-04T20:05:42.129Z,97972.00
2022-11-04T20:08:29.808Z,97968.00
2022-11-04T20:11:18.952Z,97976.00
2022-11-04T20:14:08.180Z,97971.00
2022-11-04T20:16:55.974Z,97975.00
2022-11-04T20:19:43.442Z,97986.00
2022-11-04T20:22:30.967Z,97985.00
2022-11-04T20:25:18.647Z,97990.00
2022-11-04T20:28:06.134Z,97995.00
2022-11-04T20:30:53.643Z,97987.00
2022-11-04T20:33:41.292Z,97995.00
2022-11-04T20:36:29.566Z,97998.00
2022-11-04T20:39:20.442Z,98004.00
2022-11-04T20:42:07.967Z,98011.00
2022-11-04T20:44:55.602Z,98008.00
2022-11-04T20:47:43.502Z,98016.00
2022-11-04T20:50:31.307Z,98018.00
2022-11-04T20:53:18.815Z,98012.00
2022-11-04T20:56:10.042Z,98014.00
2022-11-04T20:58:59.937Z,98018.00
2022-11-04T21:01:50.369Z,98032.00
2022-11-04T21:04:38.344Z,98047.00
2022-11-04T21:07:25.842Z,98065.00
2022-11-04T21:10:13.341Z,98059.00
2022-11-04T21:13:00.822Z,98062.00
2022-11-04T21:15:57.916Z,98063.00
2022-11-04T21:18:45.787Z,98063.00
2022-11-04T21:21:33.370Z,98070.00
2022-11-04T21:24:21.005Z,98063.00
2022-11-04T21:27:08.568Z,98070.00
2022-11-04T21:29:56.813Z,98078.00
2022-11-04T21:32:44.266Z,98086.00
2022-11-04T21:35:35.862Z,98086.00
2022-11-04T21:38:23.595Z,98092.00
2022-11-04T21:41:15.988Z,98094.00
2022-11-04T21:44:08.528Z,98101.00
2022-11-04T21:46:56.037Z,98096.00
2022-11-04T21:49:43.487Z,98095.00
2022-11-04T21:52:31.900Z,98096.00
2022-11-04T21:55:19.589Z,98093.00
2022-11-04T21:58:07.158Z,98090.00
2022-11-04T22:00:57.887Z,98094.00
2022-11-04T22:03:51.881Z,98090.00
2022-11-04T22:06:39.462Z,98088.00
2022-11-04T22:09:26.982Z,98087.00
2022-11-04T22:12:14.408Z,98091.00
2022-11-04T22:15:01.889Z,98077.00
2022-11-04T22:17:49.335Z,98087.00
2022-11-04T22:20:37.912Z,98082.00
2022-11-04T22:23:25.436Z,98086.00
2022-11-04T22:26:21.632Z,98090.00
2022-11-04T22:29:10.734Z,98101.00
2022-11-04T22:31:58.143Z,98091.00
2022-11-04T22:34:45.558Z,98098.00
2022-11-04T22:37:33.248Z,98098.00
2022-11-04T22:40:21.933Z,98104.00
2022-11-04T22:43:09.702Z,98103.00
2022-11-04T22:45:58.662Z,98109.00
2022-11-04T22:48:46.993Z,98111.00
2022-11-04T22:51:34.472Z,98109.00
2022-11-04T22:54:22.023Z,98113.00
2022-11-04T22:57:09.558Z,98114.00
2022-11-04T22:59:57.117Z,98109.00
2022-11-04T23:02:45.620Z,98109.00
2022-11-04T23:05:34.368Z,98110.00
2022-11-04T23:08:22.193Z,98101.00
2022-11-04T23:11:36.527Z,98091.00
2022-11-04T23:14:42.779Z,98087.00
2022-11-04T23:17:48.843Z,98087.00
2022-11-04T23:20:36.363Z,98094.00
2022-11-04T23:23:42.592Z,98094.00
2022-11-04T23:26:31.000Z,98092.00
2022-11-04T23:29:37.879Z,98095.00
2022-11-04T23:32:27.408Z,98099.00
2022-11-04T23:35:34.141Z,98111.00
2022-11-04T23:38:22.992Z,98116.00
2022-11-04T23:41:29.272Z,98124.00
2022-11-04T23:44:36.653Z,98133.00
2022-11-04T23:47:42.731Z,98139.00
2022-11-04T23:50:53.483Z,98142.00
2022-11-04T23:53:59.867Z,98138.00
2022-11-04T23:57:06.089Z,98144.00
